sensor_id;sensor_type;location;lat;lon;timestamp;pressure;altitude;pressure_sealevel;temperature;humidity
75938;BME280;64615;32.062;34.834;2023-09-19T00:02:16;100413.66;;;26.99;65.17
75938;BME280;64615;32.062;34.834;2023-09-19T00:04:43;100417.50;;;26.98;64.97
75938;BME280;64615;32.062;34.834;2023-09-19T00:07:08;100406.56;;;26.98;65.24
75938;BME280;64615;32.062;34.834;2023-09-19T00:09:34;100413.66;;;26.99;65.07
75938;BME280;64615;32.062;34.834;2023-09-19T00:12:05;100410.66;;;27.01;65.24
75938;BME280;64615;32.062;34.834;2023-09-19T00:14:31;100407.31;;;27.04;64.96
75938;BME280;64615;32.062;34.834;2023-09-19T00:17:00;100408.63;;;27.06;64.83
75938;BME280;64615;32.062;34.834;2023-09-19T00:19:26;100403.47;;;27.05;64.47
75938;BME280;64615;32.062;34.834;2023-09-19T00:21:52;100401.84;;;27.04;64.90
75938;BME280;64615;32.062;34.834;2023-09-19T00:24:18;100401.25;;;27.07;64.97
75938;BME280;64615;32.062;34.834;2023-09-19T00:26:44;100401.25;;;27.07;64.86
75938;BME280;64615;32.062;34.834;2023-09-19T00:29:12;100405.13;;;27.06;64.60
75938;BME280;64615;32.062;34.834;2023-09-19T00:31:44;100399.13;;;27.04;64.74
75938;BME280;64615;32.062;34.834;2023-09-19T00:34:09;100389.59;;;27.01;64.92
75938;BME280;64615;32.062;34.834;2023-09-19T00:36:39;100399.72;;;27.01;64.91
75938;BME280;64615;32.062;34.834;2023-09-19T00:39:06;100390.19;;;26.98;64.88
75938;BME280;64615;32.062;34.834;2023-09-19T00:41:33;100393.19;;;26.96;64.85
75938;BME280;64615;32.062;34.834;2023-09-19T00:44:01;100398.66;;;26.96;65.01
75938;BME280;64615;32.062;34.834;2023-09-19T00:46:27;100400.91;;;26.94;64.99
75938;BME280;64615;32.062;34.834;2023-09-19T00:48:53;100404.44;;;26.95;64.89
75938;BME280;64615;32.062;34.834;2023-09-19T00:51:20;100403.31;;;26.96;65.12
75938;BME280;64615;32.062;34.834;2023-09-19T00:53:48;100409.59;;;26.96;64.71
75938;BME280;64615;32.062;34.834;2023-09-19T00:56:15;100402.22;;;26.97;65.05
75938;BME280;64615;32.062;34.834;2023-09-19T00:58:44;100403.31;;;26.96;64.92
75938;BME280;64615;32.062;34.834;2023-09-19T01:01:12;100403.56;;;27.00;65.25
75938;BME280;64615;32.062;34.834;2023-09-19T01:03:41;100399.19;;;26.98;65.00
75938;BME280;64615;32.062;34.834;2023-09-19T01:06:07;100396.19;;;27.00;64.83
75938;BME280;64615;32.062;34.834;2023-09-19T01:08:34;100399.41;;;27.02;64.84
75938;BME280;64615;32.062;34.834;2023-09-19T01:11:20;100416.31;;;27.04;64.93
75938;BME280;64615;32.062;34.834;2023-09-19T01:13:58;100408.13;;;27.04;64.72
75938;BME280;64615;32.062;34.834;2023-09-19T01:16:36;100407.53;;;27.07;64.78
75938;BME280;64615;32.062;34.834;2023-09-19T01:19:29;100416.03;;;27.06;64.74
75938;BME280;64615;32.062;34.834;2023-09-19T01:30:27;100412.31;;;26.96;64.95
75938;BME280;64615;32.062;34.834;2023-09-19T01:32:58;100409.91;;;26.95;64.87
75938;BME280;64615;32.062;34.834;2023-09-19T01:35:25;100418.09;;;26.95;64.71
75938;BME280;64615;32.062;34.834;2023-09-19T01:37:51;100413.75;;;26.94;64.76
75938;BME280;64615;32.062;34.834;2023-09-19T01:40:20;100416.47;;;26.94;64.83
75938;BME280;64615;32.062;34.834;2023-09-19T01:42:59;100413.75;;;26.94;64.63
75938;BME280;64615;32.062;34.834;2023-09-19T01:45:37;100417.56;;;26.93;64.70
75938;BME280;64615;32.062;34.834;2023-09-19T01:48:29;100421.41;;;26.92;64.67
75938;BME280;64615;32.062;34.834;2023-09-19T01:51:06;100423.03;;;26.93;64.81
75938;BME280;64615;32.062;34.834;2023-09-19T01:53:51;100422.22;;;26.92;64.61
75938;BME280;64615;32.062;34.834;2023-09-19T01:56:29;100421.63;;;26.95;64.60
75938;BME280;64615;32.062;34.834;2023-09-19T01:59:04;100423.50;;;27.00;64.58
75938;BME280;64615;32.062;34.834;2023-09-19T02:01:32;100428.97;;;27.00;64.50
75938;BME280;64615;32.062;34.834;2023-09-19T02:03:58;100430.56;;;27.01;64.60
75938;BME280;64615;32.062;34.834;2023-09-19T02:06:24;100430.56;;;27.01;64.52
75938;BME280;64615;32.062;34.834;2023-09-19T02:08:50;100426.72;;;27.02;64.44
75938;BME280;64615;32.062;34.834;2023-09-19T02:11:16;100431.91;;;27.04;64.44
75938;BME280;64615;32.062;34.834;2023-09-19T02:13:42;100430.81;;;27.05;64.43
75938;BME280;64615;32.062;34.834;2023-09-19T02:16:09;100427.75;;;27.06;64.24
75938;BME280;64615;32.062;34.834;2023-09-19T02:18:36;100428.06;;;27.05;64.31
75938;BME280;64615;32.062;34.834;2023-09-19T02:21:02;100422.38;;;27.01;64.65
75938;BME280;64615;32.062;34.834;2023-09-19T02:23:29;100420.22;;;26.98;64.38
75938;BME280;64615;32.062;34.834;2023-09-19T02:25:55;100421.63;;;26.95;64.60
75938;BME280;64615;32.062;34.834;2023-09-19T02:28:26;100415.94;;;26.92;64.50
75938;BME280;64615;32.062;34.834;2023-09-19T02:31:01;100421.13;;;26.93;64.44
75938;BME280;64615;32.062;34.834;2023-09-19T02:33:28;100426.88;;;26.92;64.59
75938;BME280;64615;32.062;34.834;2023-09-19T02:35:58;100424.44;;;26.90;64.61
75938;BME280;64615;32.062;34.834;2023-09-19T02:38:25;100427.16;;;26.90;64.63
75938;BME280;64615;32.062;34.834;2023-09-19T02:40:52;100426.88;;;26.92;64.18
75938;BME280;64615;32.062;34.834;2023-09-19T02:43:17;100425.50;;;26.94;64.17
75938;BME280;64615;32.062;34.834;2023-09-19T02:45:45;100425.78;;;26.93;64.38
75938;BME280;64615;32.062;34.834;2023-09-19T02:48:12;100427.69;;;26.92;64.49
75938;BME280;64615;32.062;34.834;2023-09-19T02:50:38;100431.25;;;26.93;64.36
75938;BME280;64615;32.062;34.834;2023-09-19T02:53:05;100431.25;;;26.93;64.55
75938;BME280;64615;32.062;34.834;2023-09-19T02:55:32;100427.09;;;26.95;64.53
75938;BME280;64615;32.062;34.834;2023-09-19T02:57:57;100437.16;;;27.00;64.32
75938;BME280;64615;32.062;34.834;2023-09-19T03:00:23;100443.59;;;26.43;68.40
75938;BME280;64615;32.062;34.834;2023-09-19T03:02:50;100435.94;;;26.16;70.01
75938;BME280;64615;32.062;34.834;2023-09-19T03:05:16;100431.63;;;26.10;71.10
75938;BME280;64615;32.062;34.834;2023-09-19T03:07:41;100433.78;;;26.13;71.15
75938;BME280;64615;32.062;34.834;2023-09-19T03:10:09;100436.69;;;26.22;71.31
75938;BME280;64615;32.062;34.834;2023-09-19T03:12:35;100437.72;;;26.31;70.76
75938;BME280;64615;32.062;34.834;2023-09-19T03:15:01;100435.16;;;26.39;70.12
75938;BME280;64615;32.062;34.834;2023-09-19T03:17:27;100435.03;;;26.49;69.51
75938;BME280;64615;32.062;34.834;2023-09-19T03:19:52;100433.06;;;26.55;69.09
75938;BME280;64615;32.062;34.834;2023-09-19T03:22:19;100441.19;;;26.60;68.47
75938;BME280;64615;32.062;34.834;2023-09-19T03:24:45;100437.56;;;26.65;67.72
75938;BME280;64615;32.062;34.834;2023-09-19T03:27:12;100439.19;;;26.66;67.30
75938;BME280;64615;32.062;34.834;2023-09-19T03:29:41;100443.72;;;26.75;67.19
75938;BME280;64615;32.062;34.834;2023-09-19T03:32:07;100451.84;;;26.80;66.87
75938;BME280;64615;32.062;34.834;2023-09-19T03:34:36;100439.81;;;26.81;66.61
75938;BME280;64615;32.062;34.834;2023-09-19T03:37:01;100451.28;;;26.83;65.99
75938;BME280;64615;32.062;34.834;2023-09-19T03:39:27;100444.41;;;26.86;65.66
75938;BME280;64615;32.062;34.834;2023-09-19T03:41:53;100455.94;;;26.83;65.54
75938;BME280;64615;32.062;34.834;2023-09-19T03:44:18;100453.19;;;26.83;64.46
75938;BME280;64615;32.062;34.834;2023-09-19T03:46:44;100462.00;;;26.56;61.50
75938;BME280;64615;32.062;34.834;2023-09-19T03:49:10;100460.28;;;26.60;61.68
75938;BME280;64615;32.062;34.834;2023-09-19T03:51:35;100458.59;;;26.64;61.77
75938;BME280;64615;32.062;34.834;2023-09-19T03:54:02;100460.22;;;26.65;61.30
75938;BME280;64615;32.062;34.834;2023-09-19T03:56:29;100457.22;;;26.67;61.44
75938;BME280;64615;32.062;34.834;2023-09-19T03:58:55;100457.22;;;26.67;61.05
75938;BME280;64615;32.062;34.834;2023-09-19T04:01:20;100459.94;;;26.67;61.29
75938;BME280;64615;32.062;34.834;2023-09-19T04:03:46;100464.03;;;26.69;61.73
75938;BME280;64615;32.062;34.834;2023-09-19T04:06:14;100468.91;;;26.72;61.81
75938;BME280;64615;32.062;34.834;2023-09-19T04:08:40;100468.91;;;26.72;61.29
75938;BME280;64615;32.062;34.834;2023-09-19T04:11:05;100471.63;;;26.72;61.74
75938;BME280;64615;32.062;34.834;2023-09-19T04:13:31;100479.88;;;26.67;60.59
75938;BME280;64615;32.062;34.834;2023-09-19T04:15:57;100486.16;;;26.68;60.11
75938;BME280;64615;32.062;34.834;2023-09-19T04:18:22;100487.47;;;26.70;60.34
75938;BME280;64615;32.062;34.834;2023-09-19T04:20:52;100484.19;;;26.73;60.90
75938;BME280;64615;32.062;34.834;2023-09-19T04:23:19;100491.84;;;26.71;60.48
75938;BME280;64615;32.062;34.834;2023-09-19T04:25:46;100494.06;;;26.69;60.13
75938;BME280;64615;32.062;34.834;2023-09-19T04:28:11;100486.66;;;26.70;60.55
75938;BME280;64615;32.062;34.834;2023-09-19T04:30:38;100486.91;;;26.73;62.07
75938;BME280;64615;32.062;34.834;2023-09-19T04:33:05;100484.69;;;26.75;60.66
75938;BME280;64615;32.062;34.834;2023-09-19T04:35:32;100489.34;;;26.75;60.66
75938;BME280;64615;32.062;34.834;2023-09-19T04:37:58;100486.59;;;26.75;60.42
75938;BME280;64615;32.062;34.834;2023-09-19T04:40:23;100489.06;;;26.76;60.92
75938;BME280;64615;32.062;34.834;2023-09-19T04:42:53;100491.56;;;26.96;60.75
75938;BME280;64615;32.062;34.834;2023-09-19T04:45:26;100491.59;;;27.15;59.08
75938;BME280;64615;32.062;34.834;2023-09-19T04:47:53;100480.88;;;27.37;58.65
75938;BME280;64615;32.062;34.834;2023-09-19T04:50:19;100490.56;;;27.30;58.08
75938;BME280;64615;32.062;34.834;2023-09-19T04:52:49;100494.75;;;27.22;58.17
75938;BME280;64615;32.062;34.834;2023-09-19T04:55:17;100497.06;;;27.15;59.08
75938;BME280;64615;32.062;34.834;2023-09-19T04:57:44;100496.81;;;27.12;59.50
75938;BME280;64615;32.062;34.834;2023-09-19T05:00:12;100498.63;;;27.21;59.07
75938;BME280;64615;32.062;34.834;2023-09-19T05:02:41;100498.97;;;27.15;58.98
75938;BME280;64615;32.062;34.834;2023-09-19T05:05:08;100498.09;;;27.38;57.99
75938;BME280;64615;32.062;34.834;2023-09-19T05:07:35;100496.31;;;27.47;57.80
75938;BME280;64615;32.062;34.834;2023-09-19T05:10:01;100500.25;;;27.60;56.93
75938;BME280;64615;32.062;34.834;2023-09-19T05:12:32;100493.97;;;27.40;57.92
75938;BME280;64615;32.062;34.834;2023-09-19T05:14:58;100505.19;;;27.39;57.64
75938;BME280;64615;32.062;34.834;2023-09-19T05:17:23;100503.13;;;27.50;57.53
75938;BME280;64615;32.062;34.834;2023-09-19T05:19:50;100498.81;;;27.44;57.45
75938;BME280;64615;32.062;34.834;2023-09-19T05:22:15;100497.50;;;27.41;57.86
75938;BME280;64615;32.062;34.834;2023-09-19T05:24:42;100496.09;;;27.44;57.67
75938;BME280;64615;32.062;34.834;2023-09-19T05:27:09;100510.81;;;27.48;57.57
75938;BME280;64615;32.062;34.834;2023-09-19T05:29:34;100509.69;;;27.49;57.90
75938;BME280;64615;32.062;34.834;2023-09-19T05:32:00;100509.47;;;27.64;57.34
75938;BME280;64615;32.062;34.834;2023-09-19T05:34:25;100518.13;;;27.71;57.39
75938;BME280;64615;32.062;34.834;2023-09-19T05:36:54;100511.38;;;27.82;56.93
75938;BME280;64615;32.062;34.834;2023-09-19T05:39:20;100522.09;;;27.97;56.68
75938;BME280;64615;32.062;34.834;2023-09-19T05:41:46;100520.78;;;27.95;56.75
75938;BME280;64615;32.062;34.834;2023-09-19T05:44:13;100524.69;;;27.89;56.93
75938;BME280;64615;32.062;34.834;2023-09-19T05:46:39;100520.16;;;27.98;56.67
75938;BME280;64615;32.062;34.834;2023-09-19T05:49:05;100525.50;;;27.89;56.95
75938;BME280;64615;32.062;34.834;2023-09-19T05:51:31;100525.25;;;28.04;56.43
75938;BME280;64615;32.062;34.834;2023-09-19T05:53:56;100521.34;;;27.92;57.11
75938;BME280;64615;32.062;34.834;2023-09-19T05:56:23;100518.03;;;27.95;57.35
75938;BME280;64615;32.062;34.834;2023-09-19T05:58:48;100533.53;;;28.32;55.97
75938;BME280;64615;32.062;34.834;2023-09-19T06:01:15;100532.31;;;28.24;56.95
75938;BME280;64615;32.062;34.834;2023-09-19T06:03:40;100529.69;;;28.00;57.38
75938;BME280;64615;32.062;34.834;2023-09-19T06:06:06;100529.06;;;27.90;57.87
75938;BME280;64615;32.062;34.834;2023-09-19T06:08:32;100524.63;;;27.94;58.10
75938;BME280;64615;32.062;34.834;2023-09-19T06:10:59;100529.47;;;28.15;57.46
75938;BME280;64615;32.062;34.834;2023-09-19T06:13:25;100526.47;;;28.31;57.07
75938;BME280;64615;32.062;34.834;2023-09-19T06:15:52;100525.59;;;28.16;57.38
75938;BME280;64615;32.062;34.834;2023-09-19T06:18:18;100530.41;;;28.06;57.84
75938;BME280;64615;32.062;34.834;2023-09-19T06:20:48;100533.00;;;28.16;58.10
75938;BME280;64615;32.062;34.834;2023-09-19T06:23:16;100537.06;;;28.18;57.89
75938;BME280;64615;32.062;34.834;2023-09-19T06:25:42;100534.78;;;28.26;57.71
75938;BME280;64615;32.062;34.834;2023-09-19T06:28:09;100534.97;;;28.43;57.29
75938;BME280;64615;32.062;34.834;2023-09-19T06:30:38;100537.53;;;28.39;57.23
75938;BME280;64615;32.062;34.834;2023-09-19T06:33:07;100539.81;;;28.18;58.17
75938;BME280;64615;32.062;34.834;2023-09-19T06:35:33;100540.91;;;28.17;58.45
75938;BME280;64615;32.062;34.834;2023-09-19T06:38:02;100541.94;;;28.21;58.28
75938;BME280;64615;32.062;34.834;2023-09-19T06:40:28;100539.34;;;28.30;57.82
75938;BME280;64615;32.062;34.834;2023-09-19T06:42:56;100543.72;;;28.31;57.74
75938;BME280;64615;32.062;34.834;2023-09-19T06:45:22;100542.34;;;28.15;58.13
75938;BME280;64615;32.062;34.834;2023-09-19T06:47:49;100535.28;;;28.09;58.39
75938;BME280;64615;32.062;34.834;2023-09-19T06:50:16;100539.50;;;28.01;58.81
75938;BME280;64615;32.062;34.834;2023-09-19T06:52:44;100544.59;;;27.94;58.95
75938;BME280;64615;32.062;34.834;2023-09-19T06:55:10;100537.97;;;27.95;58.75
75938;BME280;64615;32.062;34.834;2023-09-19T06:57:39;100542.69;;;28.08;58.49
75938;BME280;64615;32.062;34.834;2023-09-19T07:00:06;100550.47;;;28.01;58.80
75938;BME280;64615;32.062;34.834;2023-09-19T07:02:44;100544.25;;;27.96;58.68
75938;BME280;64615;32.062;34.834;2023-09-19T07:05:10;100544.34;;;27.91;58.72
75938;BME280;64615;32.062;34.834;2023-09-19T07:07:36;100549.91;;;27.86;58.96
75938;BME280;64615;32.062;34.834;2023-09-19T07:10:05;100546.66;;;27.84;59.10
75938;BME280;64615;32.062;34.834;2023-09-19T07:12:31;100554.34;;;27.81;59.09
75938;BME280;64615;32.062;34.834;2023-09-19T07:14:58;100556.78;;;27.83;59.17
75938;BME280;64615;32.062;34.834;2023-09-19T07:17:24;100545.94;;;27.78;59.24
75938;BME280;64615;32.062;34.834;2023-09-19T07:19:49;100544.59;;;27.75;58.96
75938;BME280;64615;32.062;34.834;2023-09-19T07:22:16;100545.19;;;27.72;58.72
75938;BME280;64615;32.062;34.834;2023-09-19T07:24:41;100546.00;;;27.73;58.91
75938;BME280;64615;32.062;34.834;2023-09-19T07:27:08;100554.41;;;27.76;59.10
75938;BME280;64615;32.062;34.834;2023-09-19T07:29:34;100549.25;;;27.75;58.97
75938;BME280;64615;32.062;34.834;2023-09-19T07:32:00;100547.94;;;27.72;59.00
75938;BME280;64615;32.062;34.834;2023-09-19T07:34:25;100547.94;;;27.72;58.51
75938;BME280;64615;32.062;34.834;2023-09-19T07:36:51;100553.69;;;27.71;58.76
75938;BME280;64615;32.062;34.834;2023-09-19T07:39:17;100551.75;;;27.71;58.45
75938;BME280;64615;32.062;34.834;2023-09-19T07:41:42;100551.75;;;27.71;58.52
75938;BME280;64615;32.062;34.834;2023-09-19T07:44:08;100551.25;;;27.69;58.70
75938;BME280;64615;32.062;34.834;2023-09-19T07:46:35;100547.47;;;27.84;58.06
75938;BME280;64615;32.062;34.834;2023-09-19T07:49:01;100539.59;;;27.96;57.41
75938;BME280;64615;32.062;34.834;2023-09-19T07:51:27;100534.03;;;28.20;56.49
75938;BME280;64615;32.062;34.834;2023-09-19T07:53:53;100537.19;;;28.27;56.48
75938;BME280;64615;32.062;34.834;2023-09-19T07:56:20;100529.69;;;28.33;56.08
75938;BME280;64615;32.062;34.834;2023-09-19T07:58:46;100526.31;;;28.22;56.70
75938;BME280;64615;32.062;34.834;2023-09-19T08:01:12;100525.50;;;28.21;56.95
75938;BME280;64615;32.062;34.834;2023-09-19T08:03:39;100524.72;;;28.21;56.42
75938;BME280;64615;32.062;34.834;2023-09-19T08:06:09;100520.66;;;28.18;56.14
75938;BME280;64615;32.062;34.834;2023-09-19T08:08:36;100520.03;;;28.21;56.20
75938;BME280;64615;32.062;34.834;2023-09-19T08:11:06;100513.97;;;28.25;56.08
75938;BME280;64615;32.062;34.834;2023-09-19T08:13:42;100515.59;;;28.26;55.91
75938;BME280;64615;32.062;34.834;2023-09-19T08:16:15;100520.25;;;28.25;55.81
75938;BME280;64615;32.062;34.834;2023-09-19T08:18:41;100511.25;;;28.25;55.32
75938;BME280;64615;32.062;34.834;2023-09-19T08:21:07;100517.53;;;28.25;56.13
75938;BME280;64615;32.062;34.834;2023-09-19T08:23:37;100508.22;;;28.26;55.98
75938;BME280;64615;32.062;34.834;2023-09-19T08:26:04;100512.88;;;28.26;55.96
75938;BME280;64615;32.062;34.834;2023-09-19T08:28:33;100508.69;;;28.28;56.15
75938;BME280;64615;32.062;34.834;2023-09-19T08:31:06;100510.03;;;28.31;56.15
75938;BME280;64615;32.062;34.834;2023-09-19T08:33:34;100509.22;;;28.30;56.30
75938;BME280;64615;32.062;34.834;2023-09-19T08:36:00;100511.63;;;28.32;56.53
75938;BME280;64615;32.062;34.834;2023-09-19T08:38:26;100500.19;;;28.30;55.89
75938;BME280;64615;32.062;34.834;2023-09-19T08:40:59;100513.59;;;28.31;55.36
75938;BME280;64615;32.062;34.834;2023-09-19T08:43:26;100497.94;;;28.32;54.98
75938;BME280;64615;32.062;34.834;2023-09-19T08:46:10;100503.44;;;28.32;55.69
75938;BME280;64615;32.062;34.834;2023-09-19T08:49:08;100501.00;;;28.30;55.88
75938;BME280;64615;32.062;34.834;2023-09-19T08:51:44;100499.09;;;28.31;55.96
75938;BME280;64615;32.062;34.834;2023-09-19T08:54:22;100492.69;;;28.35;55.55
75938;BME280;64615;32.062;34.834;2023-09-19T08:56:53;100485.88;;;28.33;55.85
75938;BME280;64615;32.062;34.834;2023-09-19T08:59:22;100483.97;;;28.33;56.01
75938;BME280;64615;32.062;34.834;2023-09-19T09:01:56;100486.41;;;28.35;56.45
75938;BME280;64615;32.062;34.834;2023-09-19T09:04:22;100482.56;;;28.36;56.55
75938;BME280;64615;32.062;34.834;2023-09-19T09:06:49;100487.44;;;28.39;56.52
75938;BME280;64615;32.062;34.834;2023-09-19T09:09:19;100482.25;;;28.37;56.78
75938;BME280;64615;32.062;34.834;2023-09-19T09:11:45;100479.22;;;28.39;56.98
75938;BME280;64615;32.062;34.834;2023-09-19T09:14:11;100477.09;;;28.36;57.41
75938;BME280;64615;32.062;34.834;2023-09-19T09:16:38;100480.66;;;28.36;57.27
75938;BME280;64615;32.062;34.834;2023-09-19T09:19:04;100475.16;;;28.36;57.90
75938;BME280;64615;32.062;34.834;2023-09-19T09:21:30;100473.84;;;28.34;57.91
75938;BME280;64615;32.062;34.834;2023-09-19T09:24:29;100486.13;;;28.36;58.31
75938;BME280;64615;32.062;34.834;2023-09-19T09:26:57;100484.78;;;28.34;58.19
75938;BME280;64615;32.062;34.834;2023-09-19T09:29:42;100474.66;;;28.34;58.44
75938;BME280;64615;32.062;34.834;2023-09-19T09:32:23;100481.75;;;28.35;58.51
75938;BME280;64615;32.062;34.834;2023-09-19T09:34:54;100475.97;;;28.37;58.80
75938;BME280;64615;32.062;34.834;2023-09-19T09:37:21;100485.31;;;28.36;59.04
75938;BME280;64615;32.062;34.834;2023-09-19T09:40:01;100471.63;;;28.36;58.88
75938;BME280;64615;32.062;34.834;2023-09-19T09:42:42;100473.53;;;28.35;59.22
75938;BME280;64615;32.062;34.834;2023-09-19T09:45:22;100465.91;;;28.32;59.28
75938;BME280;64615;32.062;34.834;2023-09-19T09:48:14;100468.88;;;28.36;59.21
75938;BME280;64615;32.062;34.834;2023-09-19T09:50:47;100467.84;;;28.32;59.29
75938;BME280;64615;32.062;34.834;2023-09-19T09:53:26;100464.00;;;28.33;59.22
75938;BME280;64615;32.062;34.834;2023-09-19T09:56:04;100461.25;;;28.33;59.19
75938;BME280;64615;32.062;34.834;2023-09-19T10:01:01;100462.97;;;28.29;59.16
75938;BME280;64615;32.062;34.834;2023-09-19T10:03:40;100458.31;;;28.29;59.37
75938;BME280;64615;32.062;34.834;2023-09-19T10:06:14;100456.09;;;28.31;58.95
75938;BME280;64615;32.062;34.834;2023-09-19T10:09:09;100451.22;;;28.28;59.21
75938;BME280;64615;32.062;34.834;2023-09-19T10:12:05;100462.34;;;28.32;59.34
75938;BME280;64615;32.062;34.834;2023-09-19T10:14:36;100456.59;;;28.33;59.38
75938;BME280;64615;32.062;34.834;2023-09-19T10:17:05;100453.84;;;28.33;59.18
75938;BME280;64615;32.062;34.834;2023-09-19T10:19:42;100460.97;;;28.34;59.10
75938;BME280;64615;32.062;34.834;2023-09-19T10:22:13;100453.03;;;28.33;59.21
75938;BME280;64615;32.062;34.834;2023-09-19T10:24:47;100448.38;;;28.33;59.27
75938;BME280;64615;32.062;34.834;2023-09-19T10:27:13;100447.06;;;28.31;59.24
75938;BME280;64615;32.062;34.834;2023-09-19T10:29:43;100445.94;;;28.32;59.30
75938;BME280;64615;32.062;34.834;2023-09-19T10:32:11;100439.97;;;28.30;59.40
75938;BME280;64615;32.062;34.834;2023-09-19T10:34:43;100440.25;;;28.28;59.69
75938;BME280;64615;32.062;34.834;2023-09-19T10:37:12;100443.81;;;28.29;60.17
75938;BME280;64615;32.062;34.834;2023-09-19T10:39:39;100440.78;;;28.30;59.71
75938;BME280;64615;32.062;34.834;2023-09-19T10:42:07;100430.94;;;28.29;59.64
75938;BME280;64615;32.062;34.834;2023-09-19T10:44:37;100435.59;;;28.29;59.99
75938;BME280;64615;32.062;34.834;2023-09-19T10:47:10;100433.69;;;28.29;60.40
75938;BME280;64615;32.062;34.834;2023-09-19T10:49:46;100441.06;;;28.29;60.09
75938;BME280;64615;32.062;34.834;2023-09-19T10:52:14;100433.97;;;28.28;60.45
75938;BME280;64615;32.062;34.834;2023-09-19T10:54:47;100424.97;;;26.92;60.96
75938;BME280;64615;32.062;34.834;2023-09-19T10:57:24;100432.81;;;26.28;60.59
75938;BME280;64615;32.062;34.834;2023-09-19T11:00:08;100430.41;;;26.26;62.75
75938;BME280;64615;32.062;34.834;2023-09-19T11:05:40;100419.25;;;25.94;62.19
75938;BME280;64615;32.062;34.834;2023-09-19T11:08:09;100422.22;;;26.26;64.40
75938;BME280;64615;32.062;34.834;2023-09-19T11:10:47;100413.41;;;25.77;60.73
75938;BME280;64615;32.062;34.834;2023-09-19T11:13:27;100417.78;;;26.01;65.29
75938;BME280;64615;32.062;34.834;2023-09-19T11:26:43;100404.94;;;25.78;64.34
75938;BME280;64615;32.062;34.834;2023-09-19T11:29:28;100408.41;;;25.16;62.16
75938;BME280;64615;32.062;34.834;2023-09-19T11:31:55;100398.28;;;25.60;65.79
75938;BME280;64615;32.062;34.834;2023-09-19T11:40:10;100410.19;;;25.36;62.90
75938;BME280;64615;32.062;34.834;2023-09-19T11:42:48;100399.44;;;25.15;64.14
75938;BME280;64615;32.062;34.834;2023-09-19T11:48:15;100391.66;;;24.94;62.61
75938;BME280;64615;32.062;34.834;2023-09-19T11:50:44;100405.78;;;25.40;65.96
75938;BME280;64615;32.062;34.834;2023-09-19T11:53:11;100397.06;;;25.04;62.76
75938;BME280;64615;32.062;34.834;2023-09-19T11:55:38;100400.56;;;25.48;65.63
75938;BME280;64615;32.062;34.834;2023-09-19T11:58:07;100404.34;;;25.13;63.45
75938;BME280;64615;32.062;34.834;2023-09-19T12:00:35;100407.09;;;25.08;65.10
75938;BME280;64615;32.062;34.834;2023-09-19T12:03:08;100396.25;;;25.42;65.03
75938;BME280;64615;32.062;34.834;2023-09-19T12:05:35;100406.69;;;24.86;62.33
75938;BME280;64615;32.062;34.834;2023-09-19T12:08:03;100408.66;;;25.19;65.66
75938;BME280;64615;32.062;34.834;2023-09-19T12:10:30;100400.91;;;25.37;64.91
75938;BME280;64615;32.062;34.834;2023-09-19T12:12:57;100396.31;;;24.83;62.28
75938;BME280;64615;32.062;34.834;2023-09-19T12:15:28;100394.53;;;25.17;65.68
75938;BME280;64615;32.062;34.834;2023-09-19T12:17:59;100398.75;;;25.33;64.99
75938;BME280;64615;32.062;34.834;2023-09-19T12:20:25;100392.00;;;24.77;62.79
75938;BME280;64615;32.062;34.834;2023-09-19T12:22:50;100396.16;;;25.13;66.05
75938;BME280;64615;32.062;34.834;2023-09-19T12:25:16;100404.16;;;25.39;67.16
75938;BME280;64615;32.062;34.834;2023-09-19T12:27:48;100402.59;;;24.83;63.61
75938;BME280;64615;32.062;34.834;2023-09-19T12:30:18;100397.63;;;25.01;66.06
75938;BME280;64615;32.062;34.834;2023-09-19T12:32:45;100399.84;;;25.33;66.25
75938;BME280;64615;32.062;34.834;2023-09-19T12:35:27;100398.28;;;24.72;62.41
75938;BME280;64615;32.062;34.834;2023-09-19T12:37:54;100405.75;;;25.06;66.32
75938;BME280;64615;32.062;34.834;2023-09-19T12:40:21;100404.50;;;25.32;67.56
75938;BME280;64615;32.062;34.834;2023-09-19T12:42:48;100397.00;;;25.48;65.15
75938;BME280;64615;32.062;34.834;2023-09-19T12:45:15;100400.81;;;26.09;63.06
75938;BME280;64615;32.062;34.834;2023-09-19T12:50:26;100399.28;;;26.70;61.03
75938;BME280;64615;32.062;34.834;2023-09-19T12:52:55;100399.88;;;26.85;60.86
75938;BME280;64615;32.062;34.834;2023-09-19T12:55:29;100404.44;;;26.95;60.40
75938;BME280;64615;32.062;34.834;2023-09-19T12:58:13;100400.00;;;26.99;60.45
75938;BME280;64615;32.062;34.834;2023-09-19T13:00:44;100405.41;;;27.04;60.96
75938;BME280;64615;32.062;34.834;2023-09-19T13:08:28;100413.28;;;27.24;60.39
75938;BME280;64615;32.062;34.834;2023-09-19T13:11:16;100412.41;;;27.29;60.19
75938;BME280;64615;32.062;34.834;2023-09-19T13:13:48;100414.84;;;27.30;59.97
75938;BME280;64615;32.062;34.834;2023-09-19T13:16:20;100411.50;;;27.33;59.89
75938;BME280;64615;32.062;34.834;2023-09-19T13:18:52;100410.19;;;27.31;60.13
75938;BME280;64615;32.062;34.834;2023-09-19T13:21:39;100400.34;;;27.30;60.10
75938;BME280;64615;32.062;34.834;2023-09-19T13:24:24;100408.75;;;27.33;59.88
75938;BME280;64615;32.062;34.834;2023-09-19T13:26:55;100408.75;;;27.33;60.02
75938;BME280;64615;32.062;34.834;2023-09-19T13:29:21;100414.75;;;27.35;59.92
75938;BME280;64615;32.062;34.834;2023-09-19T13:31:48;100412.84;;;27.36;60.10
75938;BME280;64615;32.062;34.834;2023-09-19T13:34:15;100413.34;;;27.38;59.87